Time;durP1;ratioP1;P1;durP2;ratioP2;P2;SDS_P1;SDS_P2;PMS_P1;PMS_P2;Temp;Humidity;BMP_temperature;BMP_pressure;BME280_temperature;BME280_humidity;BME280_pressure;Samples;Min_cycle;Max_cycle;Signal;HPM_P1;HPM_P2
2021/06/19 00:00:51;;;;;;;0.10;0.10;;;;;;;;;;4861522;29;20495;-88
2021/06/19 00:03:17;;;;;;;0.20;0.20;;;;;;;;;;4878268;29;20448;-88
2021/06/19 00:05:43;;;;;;;0.10;0.10;;;;;;;;;;4876878;29;20041;-88
2021/06/19 00:08:12;;;;;;;0.10;0.10;;;;;;;;;;4876833;29;20123;-88
2021/06/19 00:10:40;;;;;;;0.20;0.20;;;;;;;;;;4861980;29;20495;-88
2021/06/19 00:13:06;;;;;;;0.20;0.20;;;;;;;;;;4861092;29;20045;-88
2021/06/19 00:15:32;;;;;;;0.10;0.10;;;;;;;;;;4876763;29;20041;-89
2021/06/19 00:17:58;;;;;;;0.15;0.15;;;;;;;;;;4876874;29;20045;-89
2021/06/19 00:20:25;;;;;;;0.10;0.10;;;;;;;;;;4876783;29;20041;-89
2021/06/19 00:22:51;;;;;;;0.15;0.15;;;;;;;;;;4861820;29;20041;-89
2021/06/19 00:25:17;;;;;;;0.10;0.10;;;;;;;;;;4861379;29;20127;-89
2021/06/19 00:27:43;;;;;;;0.10;0.10;;;;;;;;;;4862423;29;20120;-90
2021/06/19 00:30:10;;;;;;;0.20;0.20;;;;;;;;;;4864727;29;20491;-88
2021/06/19 00:32:36;;;;;;;0.10;0.10;;;;;;;;;;4880078;29;20068;-89
2021/06/19 00:35:04;;;;;;;0.10;0.10;;;;;;;;;;4880135;29;20068;-89
2021/06/19 00:37:30;;;;;;;0.10;0.10;;;;;;;;;;4864778;29;20047;-90
2021/06/19 00:39:56;;;;;;;0.17;0.17;;;;;;;;;;4864472;29;20456;-88
2021/06/19 00:42:22;;;;;;;0.20;0.20;;;;;;;;;;4864474;29;20129;-88
2021/06/19 00:44:48;;;;;;;0.10;0.10;;;;;;;;;;4879775;29;20041;-88
2021/06/19 00:47:14;;;;;;;0.10;0.10;;;;;;;;;;4879674;29;20072;-90
2021/06/19 00:49:41;;;;;;;0.10;0.10;;;;;;;;;;4879629;29;20479;-89
2021/06/19 00:52:07;;;;;;;0.10;0.10;;;;;;;;;;4864298;29;20047;-89
2021/06/19 00:54:33;;;;;;;0.10;0.10;;;;;;;;;;4864439;29;20112;-89
2021/06/19 00:57:00;;;;;;;0.20;0.20;;;;;;;;;;4879402;29;20165;-89
2021/06/19 00:59:26;;;;;;;0.10;0.10;;;;;;;;;;4879688;29;20041;-89
2021/06/19 01:01:52;;;;;;;0.10;0.10;;;;;;;;;;4864388;29;20399;-89
2021/06/19 01:04:18;;;;;;;0.73;0.73;;;;;;;;;;4864198;29;20048;-90
2021/06/19 01:09:20;;;;;;;0.20;0.20;;;;;;;;;;4950111;23;20048;-86
2021/06/19 01:11:48;;;;;;;0.10;0.10;;;;;;;;;;4932722;29;20103;-86
2021/06/19 01:14:14;;;;;;;0.10;0.10;;;;;;;;;;4932744;29;20044;-87
2021/06/19 01:16:40;;;;;;;0.10;0.10;;;;;;;;;;4932602;29;20044;-87
2021/06/19 01:19:06;;;;;;;0.10;0.10;;;;;;;;;;4916973;29;20500;-87
2021/06/19 01:21:32;;;;;;;0.10;0.10;;;;;;;;;;4917025;29;20044;-86
2021/06/19 01:23:58;;;;;;;0.75;0.75;;;;;;;;;;4916742;29;20410;-86
2021/06/19 01:26:26;;;;;;;0.10;0.10;;;;;;;;;;4932766;29;20040;-88
2021/06/19 01:28:52;;;;;;;0.20;0.20;;;;;;;;;;4917014;29;20413;-88
2021/06/19 01:31:18;;;;;;;0.10;0.10;;;;;;;;;;4917111;29;20482;-88
2021/06/19 01:33:45;;;;;;;0.20;0.20;;;;;;;;;;4901248;29;20048;-87
2021/06/19 01:36:11;;;;;;;0.10;0.10;;;;;;;;;;4916610;29;20107;-87
2021/06/19 01:38:45;;;;;;;0.10;0.10;;;;;;;;;;4932057;29;20523;-87
2021/06/19 01:41:17;;;;;;;0.10;0.10;;;;;;;;;;4916499;29;20051;-86
2021/06/19 01:43:44;;;;;;;0.10;0.10;;;;;;;;;;4932353;29;20413;-87
2021/06/19 01:46:10;;;;;;;0.55;0.55;;;;;;;;;;4916597;29;20043;-87
2021/06/19 01:48:36;;;;;;;0.10;0.10;;;;;;;;;;4932745;29;20051;-87
2021/06/19 01:51:02;;;;;;;0.20;0.20;;;;;;;;;;4916251;29;20067;-86
2021/06/19 01:53:28;;;;;;;0.20;0.20;;;;;;;;;;4916475;29;20573;-86
2021/06/19 01:55:54;;;;;;;0.10;0.10;;;;;;;;;;4932327;29;20122;-86
2021/06/19 01:58:20;;;;;;;0.20;0.20;;;;;;;;;;4931847;29;20040;-87
2021/06/19 02:00:46;;;;;;;0.10;0.10;;;;;;;;;;4931685;29;20067;-87
2021/06/19 02:03:13;;;;;;;0.10;0.10;;;;;;;;;;4931891;29;20087;-87
2021/06/19 02:05:39;;;;;;;0.10;0.10;;;;;;;;;;4931643;29;20044;-87
2021/06/19 02:08:06;;;;;;;0.20;0.20;;;;;;;;;;4916758;29;20044;-87
2021/06/19 02:10:34;;;;;;;0.10;0.10;;;;;;;;;;4916093;29;20040;-86
2021/06/19 02:13:02;;;;;;;0.25;0.20;;;;;;;;;;4931600;29;20044;-86
2021/06/19 02:15:28;;;;;;;0.22;0.15;;;;;;;;;;4931815;29;20170;-86
2021/06/19 02:17:57;;;;;;;0.55;0.55;;;;;;;;;;4931371;29;20079;-86
2021/06/19 02:20:23;;;;;;;0.10;0.10;;;;;;;;;;4931839;29;20123;-87
2021/06/19 02:22:50;;;;;;;0.20;0.20;;;;;;;;;;4915693;29;20119;-86
2021/06/19 02:25:17;;;;;;;0.20;0.20;;;;;;;;;;4947324;29;20087;-86
2021/06/19 02:27:47;;;;;;;0.10;0.10;;;;;;;;;;4931458;29;20040;-87
2021/06/19 02:30:13;;;;;;;0.10;0.10;;;;;;;;;;4931327;29;20040;-87
2021/06/19 02:32:39;;;;;;;0.10;0.10;;;;;;;;;;4931374;29;20104;-87
2021/06/19 02:35:06;;;;;;;0.20;0.20;;;;;;;;;;4915335;29;20047;-86
2021/06/19 02:37:31;;;;;;;0.28;0.28;;;;;;;;;;4947060;28;20540;-86
2021/06/19 02:39:57;;;;;;;0.10;0.10;;;;;;;;;;4915495;29;20044;-86
2021/06/19 02:42:23;;;;;;;0.20;0.20;;;;;;;;;;4931119;29;20052;-86
2021/06/19 02:44:49;;;;;;;0.20;0.20;;;;;;;;;;4915446;29;20475;-86
2021/06/19 02:47:15;;;;;;;0.20;0.20;;;;;;;;;;4930913;29;20223;-86
2021/06/19 02:49:42;;;;;;;0.10;0.10;;;;;;;;;;4930608;29;20051;-86
2021/06/19 02:52:09;;;;;;;0.10;0.10;;;;;;;;;;4930831;29;20123;-86
2021/06/19 02:54:40;;;;;;;0.10;0.10;;;;;;;;;;4930809;29;20134;-86
2021/06/19 02:57:06;;;;;;;0.10;0.10;;;;;;;;;;4916146;29;20047;-86
2021/06/19 02:59:32;;;;;;;0.10;0.10;;;;;;;;;;4915128;29;20486;-86
2021/06/19 03:01:58;;;;;;;0.10;0.10;;;;;;;;;;4916119;29;20446;-86
2021/06/19 03:04:24;;;;;;;0.20;0.20;;;;;;;;;;4916050;29;20044;-86
2021/06/19 03:06:50;;;;;;;0.10;0.10;;;;;;;;;;4914847;29;20036;-85
2021/06/19 03:09:16;;;;;;;0.10;0.10;;;;;;;;;;4930269;29;20056;-86
2021/06/19 03:11:42;;;;;;;0.20;0.20;;;;;;;;;;4930815;29;20048;-85
2021/06/19 03:14:10;;;;;;;0.20;0.20;;;;;;;;;;4914902;29;20064;-85
2021/06/19 03:16:36;;;;;;;0.30;0.30;;;;;;;;;;4930466;29;20549;-86
2021/06/19 03:19:05;;;;;;;0.10;0.10;;;;;;;;;;4930787;29;20478;-85
2021/06/19 03:21:32;;;;;;;0.30;0.30;;;;;;;;;;4930990;29;20044;-85
2021/06/19 03:23:58;;;;;;;0.17;0.17;;;;;;;;;;4914756;29;20103;-86
2021/06/19 03:26:24;;;;;;;0.10;0.10;;;;;;;;;;4914639;29;20036;-86
2021/06/19 03:28:50;;;;;;;0.10;0.10;;;;;;;;;;4930566;29;20054;-86
2021/06/19 03:31:16;;;;;;;0.10;0.10;;;;;;;;;;4930369;29;20037;-86
2021/06/19 03:33:42;;;;;;;0.17;0.17;;;;;;;;;;4930689;29;20095;-86
2021/06/19 03:36:08;;;;;;;0.20;0.20;;;;;;;;;;4914478;29;20048;-86
2021/06/19 03:38:34;;;;;;;0.22;0.22;;;;;;;;;;4915860;29;20043;-86
2021/06/19 03:41:00;;;;;;;0.10;0.10;;;;;;;;;;4915881;29;20080;-87
2021/06/19 03:43:27;;;;;;;0.10;0.10;;;;;;;;;;4930596;29;20059;-86
2021/06/19 03:45:53;;;;;;;0.30;0.30;;;;;;;;;;4930451;29;20130;-86
2021/06/19 03:48:19;;;;;;;0.20;0.20;;;;;;;;;;4914574;29;20500;-86
2021/06/19 03:50:45;;;;;;;0.20;0.20;;;;;;;;;;4930311;29;20044;-86
2021/06/19 03:53:12;;;;;;;0.20;0.20;;;;;;;;;;4914515;29;20497;-86
2021/06/19 03:55:38;;;;;;;0.10;0.10;;;;;;;;;;4946548;28;20044;-86
2021/06/19 03:58:04;;;;;;;0.10;0.10;;;;;;;;;;4914486;29;20170;-87
2021/06/19 04:00:30;;;;;;;0.13;0.13;;;;;;;;;;4930410;29;20048;-86
2021/06/19 04:02:57;;;;;;;0.17;0.17;;;;;;;;;;4931801;29;20047;-86
2021/06/19 04:05:23;;;;;;;0.20;0.20;;;;;;;;;;4918052;29;20040;-87
2021/06/19 04:07:49;;;;;;;0.10;0.10;;;;;;;;;;4933769;29;20052;-86
2021/06/19 04:10:15;;;;;;;0.10;0.10;;;;;;;;;;4949373;28;20067;-86
2021/06/19 04:12:41;;;;;;;0.10;0.10;;;;;;;;;;4933704;29;20074;-85
2021/06/19 04:15:09;;;;;;;0.15;0.15;;;;;;;;;;4917782;29;20048;-86
2021/06/19 04:17:36;;;;;;;0.22;0.22;;;;;;;;;;4917925;29;20040;-86
2021/06/19 04:20:02;;;;;;;0.20;0.20;;;;;;;;;;4917656;29;20115;-86
2021/06/19 04:22:28;;;;;;;0.20;0.20;;;;;;;;;;4917682;29;20048;-85
2021/06/19 04:24:54;;;;;;;0.10;0.10;;;;;;;;;;4933468;29;20052;-86
2021/06/19 04:27:20;;;;;;;0.20;0.20;;;;;;;;;;4933318;29;20040;-85
2021/06/19 04:29:47;;;;;;;0.20;0.20;;;;;;;;;;4917496;29;20047;-85
2021/06/19 04:32:13;;;;;;;0.17;0.17;;;;;;;;;;4933342;29;20522;-86
2021/06/19 04:34:42;;;;;;;0.10;0.10;;;;;;;;;;4917633;29;20378;-84
2021/06/19 04:37:08;;;;;;;0.20;0.20;;;;;;;;;;4933542;29;20131;-86
2021/06/19 04:39:38;;;;;;;0.20;0.20;;;;;;;;;;4933461;29;20066;-86
2021/06/19 04:42:07;;;;;;;0.10;0.10;;;;;;;;;;4933851;29;20091;-86
2021/06/19 04:47:17;;;;;;;0.10;0.10;;;;;;;;;;4917404;29;20491;-86
2021/06/19 04:49:43;;;;;;;0.20;0.20;;;;;;;;;;4933118;29;20040;-86
2021/06/19 04:52:09;;;;;;;0.10;0.10;;;;;;;;;;4949094;29;20052;-86
2021/06/19 04:54:38;;;;;;;0.10;0.10;;;;;;;;;;4917268;29;20044;-86
2021/06/19 04:57:05;;;;;;;0.40;0.40;;;;;;;;;;4917146;29;20047;-85
2021/06/19 04:59:31;;;;;;;0.20;0.20;;;;;;;;;;4917087;29;20048;-86
2021/06/19 05:01:58;;;;;;;0.10;0.10;;;;;;;;;;4917165;29;20516;-85
2021/06/19 05:04:24;;;;;;;0.10;0.10;;;;;;;;;;4917050;29;20047;-86
2021/06/19 05:06:50;;;;;;;0.10;0.10;;;;;;;;;;4916886;29;20040;-85
2021/06/19 05:09:16;;;;;;;0.10;0.10;;;;;;;;;;4916667;29;20052;-86
2021/06/19 05:11:42;;;;;;;0.25;0.25;;;;;;;;;;4916944;29;20047;-85
2021/06/19 05:14:08;;;;;;;0.10;0.10;;;;;;;;;;4932481;29;20414;-87
2021/06/19 05:16:34;;;;;;;0.20;0.20;;;;;;;;;;4932536;29;20103;-87
2021/06/19 05:19:00;;;;;;;0.50;0.50;;;;;;;;;;4917805;29;20478;-87
2021/06/19 05:21:26;;;;;;;0.10;0.10;;;;;;;;;;4917811;29;20047;-88
2021/06/19 05:23:52;;;;;;;0.10;0.10;;;;;;;;;;4932311;29;20048;-87
2021/06/19 05:26:18;;;;;;;0.10;0.10;;;;;;;;;;4932427;29;20047;-87
2021/06/19 05:28:44;;;;;;;0.10;0.10;;;;;;;;;;4916631;29;20036;-87
2021/06/19 05:31:10;;;;;;;0.30;0.30;;;;;;;;;;4916555;29;20047;-87
2021/06/19 05:33:36;;;;;;;0.30;0.30;;;;;;;;;;4916868;29;20068;-93
2021/06/19 05:36:02;;;;;;;0.10;0.10;;;;;;;;;;4932659;29;20040;-88
2021/06/19 05:38:28;;;;;;;0.10;0.10;;;;;;;;;;4932136;29;20107;-88
2021/06/19 05:40:55;;;;;;;0.40;0.40;;;;;;;;;;4916493;29;20040;-90
2021/06/19 05:43:21;;;;;;;0.68;0.68;;;;;;;;;;4948705;29;20058;-90
2021/06/19 05:45:47;;;;;;;0.10;0.10;;;;;;;;;;4933020;29;20046;-92
2021/06/19 05:48:13;;;;;;;0.10;0.10;;;;;;;;;;4948825;28;20097;-93
2021/06/19 05:50:39;;;;;;;0.10;0.10;;;;;;;;;;4932994;29;20036;-93
2021/06/19 05:53:05;;;;;;;0.13;0.13;;;;;;;;;;4932919;29;20067;-93
2021/06/19 05:55:31;;;;;;;0.20;0.20;;;;;;;;;;4932834;29;20096;-93
2021/06/19 05:57:57;;;;;;;0.20;0.20;;;;;;;;;;4917096;29;20040;-93
2021/06/19 06:00:24;;;;;;;0.10;0.10;;;;;;;;;;4932912;29;20075;-94
2021/06/19 06:02:50;;;;;;;0.10;0.10;;;;;;;;;;4932816;29;20047;-93
2021/06/19 06:05:16;;;;;;;0.10;0.10;;;;;;;;;;4916683;29;20486;-93
2021/06/19 06:07:42;;;;;;;0.10;0.10;;;;;;;;;;4932546;29;20036;-94
2021/06/19 06:10:08;;;;;;;0.10;0.10;;;;;;;;;;4916894;29;20434;-93
2021/06/19 06:12:34;;;;;;;0.20;0.20;;;;;;;;;;4932915;29;20040;-93
2021/06/19 06:15:00;;;;;;;0.10;0.10;;;;;;;;;;4916917;29;20077;-93
2021/06/19 06:17:28;;;;;;;0.10;0.10;;;;;;;;;;4916976;29;20082;-94
2021/06/19 06:19:54;;;;;;;0.20;0.20;;;;;;;;;;4932164;29;20047;-93
2021/06/19 06:22:20;;;;;;;0.10;0.10;;;;;;;;;;4932864;29;20040;-93
2021/06/19 06:24:47;;;;;;;0.15;0.15;;;;;;;;;;4931238;29;20044;-93
2021/06/19 06:27:13;;;;;;;0.38;0.38;;;;;;;;;;4931947;29;20048;-90
2021/06/19 06:29:39;;;;;;;0.30;0.20;;;;;;;;;;4915751;29;20044;-90
2021/06/19 06:32:06;;;;;;;0.10;0.10;;;;;;;;;;4931789;29;20429;-92
2021/06/19 06:34:32;;;;;;;0.25;0.25;;;;;;;;;;4931959;29;20068;-92
2021/06/19 06:36:58;;;;;;;0.43;0.30;;;;;;;;;;4932290;29;20036;-92
2021/06/19 06:39:24;;;;;;;0.20;0.20;;;;;;;;;;4933181;29;20032;-90
2021/06/19 06:41:50;;;;;;;0.20;0.20;;;;;;;;;;4931439;29;20048;-88
2021/06/19 06:44:16;;;;;;;0.85;0.20;;;;;;;;;;4915393;29;20042;-89
2021/06/19 06:46:42;;;;;;;0.30;0.30;;;;;;;;;;4931079;29;20486;-90
2021/06/19 06:49:08;;;;;;;0.10;0.10;;;;;;;;;;4930987;29;20044;-90
2021/06/19 06:51:34;;;;;;;0.10;0.10;;;;;;;;;;4915585;29;20247;-92
2021/06/19 06:54:01;;;;;;;0.10;0.10;;;;;;;;;;4915537;29;20128;-91
2021/06/19 06:56:27;;;;;;;0.10;0.10;;;;;;;;;;4931489;29;20087;-91
2021/06/19 06:58:53;;;;;;;0.70;0.20;;;;;;;;;;4915345;29;20059;-90
2021/06/19 07:01:19;;;;;;;0.10;0.10;;;;;;;;;;4931175;29;20044;-91
2021/06/19 07:03:45;;;;;;;0.10;0.10;;;;;;;;;;4915332;29;20044;-90
2021/06/19 07:06:11;;;;;;;0.10;0.10;;;;;;;;;;4930924;29;20044;-91
2021/06/19 07:08:37;;;;;;;0.20;0.20;;;;;;;;;;4915204;29;20120;-91
2021/06/19 07:11:03;;;;;;;0.43;0.43;;;;;;;;;;4930775;29;20052;-90
2021/06/19 07:13:29;;;;;;;0.10;0.10;;;;;;;;;;4915421;29;20092;-91
2021/06/19 07:15:55;;;;;;;0.30;0.20;;;;;;;;;;4931223;29;20040;-92
2021/06/19 07:18:26;;;;;;;0.10;0.10;;;;;;;;;;4930473;29;20151;-93
2021/06/19 07:20:52;;;;;;;0.13;0.13;;;;;;;;;;4931182;29;20046;-92
2021/06/19 07:23:18;;;;;;;0.10;0.10;;;;;;;;;;4930821;29;20051;-90
2021/06/19 07:25:44;;;;;;;0.20;0.20;;;;;;;;;;4915304;29;20043;-90
2021/06/19 07:28:10;;;;;;;0.20;0.20;;;;;;;;;;4930720;29;20048;-90
2021/06/19 07:30:36;;;;;;;0.10;0.10;;;;;;;;;;4930833;29;20140;-89
2021/06/19 07:33:02;;;;;;;0.10;0.10;;;;;;;;;;4930700;29;20200;-92
2021/06/19 07:35:28;;;;;;;0.10;0.10;;;;;;;;;;4946651;29;20043;-91
2021/06/19 07:37:57;;;;;;;0.40;0.40;;;;;;;;;;4935224;29;20068;-90
2021/06/19 07:40:23;;;;;;;0.10;0.10;;;;;;;;;;4950233;29;20234;-85
2021/06/19 07:42:49;;;;;;;0.20;0.20;;;;;;;;;;4918348;29;20044;-85
2021/06/19 07:45:15;;;;;;;0.15;0.15;;;;;;;;;;4934325;29;20039;-86
2021/06/19 07:47:41;;;;;;;0.20;0.20;;;;;;;;;;4919419;29;20036;-86
2021/06/19 07:50:07;;;;;;;0.20;0.20;;;;;;;;;;4918261;29;20103;-85
2021/06/19 07:52:33;;;;;;;0.20;0.20;;;;;;;;;;4918279;29;20047;-85
2021/06/19 07:55:01;;;;;;;0.30;0.20;;;;;;;;;;4919476;29;20123;-86
2021/06/19 07:57:27;;;;;;;0.32;0.32;;;;;;;;;;4919360;29;20040;-86
2021/06/19 07:59:53;;;;;;;0.10;0.10;;;;;;;;;;4918027;29;20043;-85
2021/06/19 08:02:19;;;;;;;0.10;0.10;;;;;;;;;;4919401;29;20131;-85
2021/06/19 08:04:45;;;;;;;0.20;0.20;;;;;;;;;;4919390;29;20040;-85
2021/06/19 08:07:11;;;;;;;0.10;0.10;;;;;;;;;;4949769;28;20047;-85
2021/06/19 08:09:37;;;;;;;0.20;0.20;;;;;;;;;;4917758;29;20052;-85
2021/06/19 08:12:04;;;;;;;0.20;0.20;;;;;;;;;;4919097;29;20065;-86
2021/06/19 08:14:30;;;;;;;0.10;0.10;;;;;;;;;;4918914;29;20044;-86
2021/06/19 08:16:58;;;;;;;0.10;0.10;;;;;;;;;;4917807;29;20043;-84
2021/06/19 08:19:25;;;;;;;0.10;0.10;;;;;;;;;;4949594;29;20048;-85
2021/06/19 08:21:51;;;;;;;0.32;0.32;;;;;;;;;;4917920;29;20104;-86
2021/06/19 08:24:17;;;;;;;0.20;0.20;;;;;;;;;;4919016;29;20122;-85
2021/06/19 08:26:43;;;;;;;0.10;0.10;;;;;;;;;;4918767;29;20451;-85
2021/06/19 08:29:09;;;;;;;0.40;0.40;;;;;;;;;;4917518;29;20036;-85
2021/06/19 08:31:36;;;;;;;0.25;0.25;;;;;;;;;;4918812;29;20040;-85
2021/06/19 08:34:02;;;;;;;0.10;0.10;;;;;;;;;;4917630;29;20118;-85
2021/06/19 08:36:28;;;;;;;0.10;0.10;;;;;;;;;;4949136;28;20040;-85
2021/06/19 08:38:54;;;;;;;0.10;0.10;;;;;;;;;;4917558;29;20040;-85
2021/06/19 08:41:20;;;;;;;0.20;0.20;;;;;;;;;;4918716;29;20119;-85
2021/06/19 08:43:46;;;;;;;0.20;0.20;;;;;;;;;;4933129;29;20072;-85
2021/06/19 08:46:12;;;;;;;0.38;0.38;;;;;;;;;;4917388;29;20079;-86
2021/06/19 08:48:38;;;;;;;0.22;0.22;;;;;;;;;;4916465;29;20044;-86
2021/06/19 08:51:05;;;;;;;0.20;0.20;;;;;;;;;;4917286;29;20048;-86
2021/06/19 08:53:32;;;;;;;0.20;0.20;;;;;;;;;;4917208;29;20048;-86
2021/06/19 08:55:58;;;;;;;0.10;0.10;;;;;;;;;;4917245;29;20051;-86
2021/06/19 08:58:24;;;;;;;0.30;0.20;;;;;;;;;;4927871;29;20482;-85
2021/06/19 09:00:50;;;;;;;0.10;0.10;;;;;;;;;;4917812;29;20497;-85
2021/06/19 09:03:34;;;;;;;0.10;0.10;;;;;;;;;;4917297;29;20115;-86
2021/06/19 09:06:33;;;;;;;0.20;0.20;;;;;;;;;;4916870;29;20479;-87
2021/06/19 09:08:59;;;;;;;0.20;0.20;;;;;;;;;;4896368;29;20410;-86
2021/06/19 09:11:32;;;;;;;0.28;0.28;;;;;;;;;;4916887;29;20047;-86
2021/06/19 09:14:01;;;;;;;0.13;0.13;;;;;;;;;;4932765;29;20050;-87
2021/06/19 09:16:27;;;;;;;0.10;0.10;;;;;;;;;;4916729;29;20048;-87
2021/06/19 09:18:54;;;;;;;0.10;0.10;;;;;;;;;;4916877;29;20043;-87
2021/06/19 09:21:27;;;;;;;0.10;0.10;;;;;;;;;;4916532;29;20111;-86
2021/06/19 09:23:53;;;;;;;0.20;0.20;;;;;;;;;;4917855;29;20483;-87
2021/06/19 09:26:20;;;;;;;0.15;0.15;;;;;;;;;;4917581;29;20072;-86
2021/06/19 09:29:05;;;;;;;0.10;0.10;;;;;;;;;;4916567;29;20036;-86
2021/06/19 09:31:31;;;;;;;0.10;0.10;;;;;;;;;;4916373;29;20052;-87
2021/06/19 09:34:06;;;;;;;0.20;0.20;;;;;;;;;;4917542;29;20103;-87
2021/06/19 09:36:39;;;;;;;0.20;0.20;;;;;;;;;;4917456;29;20566;-86
2021/06/19 09:39:05;;;;;;;0.10;0.10;;;;;;;;;;4916265;29;20052;-86
2021/06/19 09:41:41;;;;;;;0.30;0.30;;;;;;;;;;4932219;29;20040;-87
2021/06/19 09:44:08;;;;;;;0.10;0.10;;;;;;;;;;4917336;29;20051;-87
2021/06/19 09:46:34;;;;;;;0.10;0.10;;;;;;;;;;4915164;29;20044;-86
2021/06/19 09:49:10;;;;;;;0.20;0.20;;;;;;;;;;4947841;29;20047;-87
2021/06/19 09:51:36;;;;;;;0.20;0.20;;;;;;;;;;4917237;29;20040;-87
2021/06/19 09:54:06;;;;;;;0.17;0.17;;;;;;;;;;4931892;29;20067;-85
2021/06/19 09:56:43;;;;;;;0.20;0.20;;;;;;;;;;4947442;29;20051;-86
2021/06/19 09:59:09;;;;;;;0.10;0.10;;;;;;;;;;4917000;29;20044;-85
2021/06/19 10:01:36;;;;;;;0.10;0.10;;;;;;;;;;4946788;28;20040;-86
2021/06/19 10:04:02;;;;;;;0.30;0.30;;;;;;;;;;4931594;29;20550;-86
2021/06/19 10:06:29;;;;;;;0.10;0.10;;;;;;;;;;4917031;29;20044;-85
2021/06/19 10:08:55;;;;;;;0.30;0.30;;;;;;;;;;4931538;29;20143;-86
2021/06/19 10:11:24;;;;;;;0.10;0.10;;;;;;;;;;4947054;29;20560;-86
2021/06/19 10:13:51;;;;;;;0.10;0.10;;;;;;;;;;4930512;29;20036;-86
2021/06/19 10:16:17;;;;;;;0.20;0.20;;;;;;;;;;4946793;29;20486;-86
2021/06/19 10:18:43;;;;;;;0.20;0.20;;;;;;;;;;4931447;29;20119;-86
2021/06/19 10:21:09;;;;;;;0.10;0.10;;;;;;;;;;4947079;29;20407;-86
2021/06/19 10:23:37;;;;;;;0.10;0.10;;;;;;;;;;4931030;29;20076;-85
2021/06/19 10:26:03;;;;;;;0.20;0.20;;;;;;;;;;4947204;29;20047;-85
2021/06/19 10:28:29;;;;;;;0.30;0.30;;;;;;;;;;4947085;28;20044;-85
2021/06/19 10:30:55;;;;;;;0.28;0.28;;;;;;;;;;4947084;29;20058;-83
2021/06/19 10:33:28;;;;;;;0.20;0.20;;;;;;;;;;4947035;29;20402;-84
2021/06/19 10:35:55;;;;;;;0.10;0.10;;;;;;;;;;4946868;29;20448;-83
2021/06/19 10:38:21;;;;;;;0.20;0.20;;;;;;;;;;4946612;28;20047;-84
2021/06/19 10:40:51;;;;;;;0.28;0.28;;;;;;;;;;4916476;29;20040;-84
2021/06/19 10:43:17;;;;;;;0.10;0.10;;;;;;;;;;4916555;29;20075;-84
2021/06/19 10:45:45;;;;;;;0.20;0.20;;;;;;;;;;4946802;29;20079;-83
2021/06/19 10:48:15;;;;;;;0.28;0.28;;;;;;;;;;4946329;28;20040;-83
2021/06/19 10:50:42;;;;;;;0.20;0.20;;;;;;;;;;4916078;29;20087;-83
2021/06/19 10:53:11;;;;;;;0.20;0.20;;;;;;;;;;4946672;29;20044;-84
2021/06/19 10:55:57;;;;;;;0.28;0.28;;;;;;;;;;4915053;29;20036;-83
2021/06/19 10:58:24;;;;;;;0.10;0.10;;;;;;;;;;4916113;29;20049;-84
2021/06/19 11:00:56;;;;;;;0.20;0.20;;;;;;;;;;4946438;29;20414;-85
2021/06/19 11:03:42;;;;;;;0.20;0.20;;;;;;;;;;4915850;29;20040;-84
2021/06/19 11:06:18;;;;;;;0.20;0.20;;;;;;;;;;4946472;29;20148;-84
2021/06/19 11:09:03;;;;;;;0.20;0.20;;;;;;;;;;4930264;29;20434;-84
2021/06/19 11:11:48;;;;;;;0.75;0.25;;;;;;;;;;4914566;29;20070;-84
2021/06/19 11:14:14;;;;;;;0.20;0.20;;;;;;;;;;4914766;29;20040;-84
2021/06/19 11:16:41;;;;;;;0.13;0.13;;;;;;;;;;4946290;28;20115;-83
2021/06/19 11:19:07;;;;;;;0.13;0.13;;;;;;;;;;4915879;29;20127;-84
2021/06/19 11:21:33;;;;;;;0.30;0.30;;;;;;;;;;4946299;29;20040;-83
2021/06/19 11:24:00;;;;;;;0.20;0.20;;;;;;;;;;4945971;29;20557;-84
2021/06/19 11:26:57;;;;;;;0.20;0.20;;;;;;;;;;4914568;29;20040;-84
2021/06/19 11:29:38;;;;;;;0.20;0.20;;;;;;;;;;4915749;29;20040;-83
2021/06/19 11:32:23;;;;;;;0.20;0.20;;;;;;;;;;4914646;29;20052;-84
2021/06/19 11:34:49;;;;;;;0.73;0.73;;;;;;;;;;4915695;29;20044;-84
2021/06/19 11:37:15;;;;;;;0.20;0.20;;;;;;;;;;4946052;28;20071;-85
2021/06/19 11:39:41;;;;;;;0.10;0.10;;;;;;;;;;4930500;29;20047;-85
2021/06/19 11:42:07;;;;;;;0.40;0.40;;;;;;;;;;4930218;29;20565;-88
2021/06/19 11:44:34;;;;;;;0.30;0.30;;;;;;;;;;4930243;29;20044;-86
2021/06/19 11:47:01;;;;;;;0.20;0.20;;;;;;;;;;4930091;29;20375;-87
2021/06/19 11:49:28;;;;;;;0.30;0.30;;;;;;;;;;4945922;29;20439;-86
2021/06/19 11:51:54;;;;;;;0.28;0.28;;;;;;;;;;4942273;29;20044;-86
2021/06/19 11:54:20;;;;;;;0.20;0.20;;;;;;;;;;4929210;29;20127;-84
2021/06/19 11:56:47;;;;;;;0.55;0.40;;;;;;;;;;4944542;28;20044;-84
2021/06/19 11:59:13;;;;;;;0.25;0.25;;;;;;;;;;4915240;29;20043;-84
2021/06/19 12:01:40;;;;;;;0.20;0.20;;;;;;;;;;4913066;29;20122;-84
2021/06/19 12:04:06;;;;;;;0.40;0.40;;;;;;;;;;4945727;29;20505;-84
2021/06/19 12:06:35;;;;;;;0.20;0.20;;;;;;;;;;4915696;29;20140;-84
2021/06/19 12:09:01;;;;;;;0.57;0.40;;;;;;;;;;4930211;29;20072;-85
2021/06/19 12:11:31;;;;;;;0.20;0.20;;;;;;;;;;4929818;29;20044;-86
2021/06/19 12:13:57;;;;;;;0.30;0.30;;;;;;;;;;4929970;29;20096;-84
2021/06/19 12:16:32;;;;;;;0.20;0.20;;;;;;;;;;4945649;29;20036;-86
2021/06/19 12:19:00;;;;;;;1.35;0.45;;;;;;;;;;4944776;29;20435;-86
2021/06/19 12:21:32;;;;;;;0.20;0.20;;;;;;;;;;4945539;29;20482;-85
2021/06/19 12:23:59;;;;;;;0.20;0.20;;;;;;;;;;4916789;29;20040;-85
2021/06/19 12:26:25;;;;;;;0.20;0.20;;;;;;;;;;4949052;29;20046;-85
2021/06/19 12:28:51;;;;;;;0.30;0.30;;;;;;;;;;4948978;29;20471;-85
2021/06/19 12:31:18;;;;;;;0.30;0.30;;;;;;;;;;4949028;29;20047;-86
2021/06/19 12:33:44;;;;;;;0.20;0.20;;;;;;;;;;4948902;28;20059;-85
2021/06/19 12:36:11;;;;;;;0.20;0.20;;;;;;;;;;4949138;29;20040;-86
2021/06/19 12:38:37;;;;;;;0.35;0.35;;;;;;;;;;4918540;29;20446;-85
2021/06/19 12:41:06;;;;;;;3.88;1.60;;;;;;;;;;4948982;29;20062;-85
2021/06/19 12:43:32;;;;;;;0.43;0.43;;;;;;;;;;4917308;29;20087;-86
2021/06/19 12:45:59;;;;;;;0.20;0.20;;;;;;;;;;4932956;29;20075;-86
2021/06/19 12:48:25;;;;;;;0.20;0.20;;;;;;;;;;4948823;28;20042;-86
2021/06/19 12:50:52;;;;;;;0.20;0.20;;;;;;;;;;4917034;29;20044;-86
2021/06/19 12:53:18;;;;;;;0.20;0.20;;;;;;;;;;4917099;29;20131;-87
2021/06/19 12:55:53;;;;;;;0.40;0.40;;;;;;;;;;4932697;29;20040;-86
2021/06/19 12:58:20;;;;;;;0.30;0.30;;;;;;;;;;4918128;29;20040;-85
2021/06/19 13:00:53;;;;;;;0.30;0.20;;;;;;;;;;4948433;29;20051;-85
2021/06/19 13:03:23;;;;;;;0.10;0.10;;;;;;;;;;4932479;29;20490;-86
2021/06/19 13:05:53;;;;;;;0.20;0.20;;;;;;;;;;4944192;29;20076;-86
2021/06/19 13:08:19;;;;;;;0.30;0.30;;;;;;;;;;4916203;29;20047;-85
2021/06/19 13:10:46;;;;;;;0.22;0.22;;;;;;;;;;4948373;29;20067;-85
2021/06/19 13:13:12;;;;;;;0.20;0.20;;;;;;;;;;4917825;29;20068;-86
2021/06/19 13:15:38;;;;;;;0.52;0.52;;;;;;;;;;4948111;29;20122;-86
2021/06/19 13:18:14;;;;;;;0.40;0.40;;;;;;;;;;4948219;28;20471;-86
2021/06/19 13:20:40;;;;;;;0.40;0.40;;;;;;;;;;4948045;29;20391;-86
2021/06/19 13:23:10;;;;;;;0.30;0.30;;;;;;;;;;4947961;29;20172;-86
2021/06/19 13:26:01;;;;;;;0.50;0.40;;;;;;;;;;4932094;29;20100;-86
2021/06/19 13:28:34;;;;;;;0.20;0.20;;;;;;;;;;4912669;29;20270;-86
2021/06/19 13:31:04;;;;;;;0.63;0.63;;;;;;;;;;4917475;29;20040;-86
2021/06/19 13:33:30;;;;;;;0.55;0.47;;;;;;;;;;4931965;29;20044;-86
2021/06/19 13:35:56;;;;;;;0.40;0.40;;;;;;;;;;4946758;28;20087;-86
2021/06/19 13:38:22;;;;;;;0.20;0.20;;;;;;;;;;4917412;29;20040;-86
2021/06/19 13:40:48;;;;;;;0.32;0.32;;;;;;;;;;4947921;29;20048;-86
2021/06/19 13:43:14;;;;;;;0.35;0.35;;;;;;;;;;4931929;29;20047;-86
2021/06/19 13:45:40;;;;;;;0.43;0.38;;;;;;;;;;4947636;29;20402;-86
2021/06/19 13:48:06;;;;;;;0.32;0.32;;;;;;;;;;4917395;29;20067;-86
2021/06/19 13:50:33;;;;;;;1.05;0.88;;;;;;;;;;4947435;29;20114;-87
2021/06/19 13:53:02;;;;;;;0.47;0.47;;;;;;;;;;4931580;29;20044;-87
2021/06/19 13:55:28;;;;;;;0.20;0.20;;;;;;;;;;4931539;29;20107;-86
2021/06/19 13:57:54;;;;;;;1.35;0.30;;;;;;;;;;4931566;29;20040;-87
2021/06/19 14:00:21;;;;;;;0.20;0.20;;;;;;;;;;4916905;29;20104;-87
2021/06/19 14:02:47;;;;;;;0.20;0.20;;;;;;;;;;4917006;29;20059;-88
2021/06/19 14:05:13;;;;;;;0.20;0.20;;;;;;;;;;4915825;29;20119;-91
2021/06/19 14:07:39;;;;;;;0.40;0.40;;;;;;;;;;4947635;28;20168;-88
2021/06/19 14:10:05;;;;;;;0.73;0.73;;;;;;;;;;4947032;29;20391;-87
2021/06/19 14:12:31;;;;;;;0.73;0.73;;;;;;;;;;4947176;29;20040;-86
2021/06/19 14:14:57;;;;;;;0.28;0.28;;;;;;;;;;4915450;29;20044;-86
2021/06/19 14:17:23;;;;;;;0.30;0.30;;;;;;;;;;4931382;29;20116;-87
2021/06/19 14:19:49;;;;;;;0.40;0.40;;;;;;;;;;4916683;29;20454;-86
2021/06/19 14:22:16;;;;;;;0.25;0.25;;;;;;;;;;4931270;29;20051;-85
2021/06/19 14:24:42;;;;;;;0.50;0.50;;;;;;;;;;4916500;29;20040;-87
2021/06/19 14:27:12;;;;;;;0.28;0.28;;;;;;;;;;4930867;29;20112;-86
2021/06/19 14:29:38;;;;;;;0.50;0.50;;;;;;;;;;4946397;29;20088;-87
2021/06/19 14:32:05;;;;;;;0.25;0.25;;;;;;;;;;4916547;29;20401;-85
2021/06/19 14:34:32;;;;;;;0.28;0.28;;;;;;;;;;4946739;29;20430;-87
2021/06/19 14:36:58;;;;;;;0.20;0.20;;;;;;;;;;4930521;29;20458;-87
2021/06/19 14:39:24;;;;;;;0.20;0.20;;;;;;;;;;4930710;29;20127;-85
2021/06/19 14:41:50;;;;;;;0.25;0.25;;;;;;;;;;4946836;29;20515;-87
2021/06/19 14:44:16;;;;;;;0.10;0.10;;;;;;;;;;4916212;29;20068;-86
2021/06/19 14:46:42;;;;;;;0.30;0.30;;;;;;;;;;4946113;28;20036;-86
2021/06/19 14:49:08;;;;;;;0.22;0.22;;;;;;;;;;4946692;29;20135;-87